Timeline UpdatesTrip UpdatesNews PostsPvt PostsTravel TipsAdmin PostsConv PostsFollowed PostsChat RequestsBlog PostsPNR Posts

Disclaimer
Search
 
 
Wed Aug 27, 2014 14:19:27 ISTHomeTrainsΣChainsAtlasPNRForumGalleryNewsFAQTripsMembersLoginFeedback
No Recent News for this Train
Other Trains in the News **new
Latest...
From 11.09.2013 to 9.11.2013........19024 Firozpur Janata Express will be terminated at Dadar.
Thu Sep 05, 2013 (07:07PM)
⇐ Return Journey: Train# 19023

19024/Firozpur - Mumbai Central Janta Express

Dec 24 2013 (8:25PM)
Change Departure Station:
Change Arrival Station:
Post a Train Travel TipPost a Train Travel Tip **new
Post a Comment/Question/Picture/VideoPost a Comment/Question/Picture/Video
Inaugural Run
Mon Oct 01, 1956
Pantry/Catering
✕ NO Pantry Car
✓ Catering Avbl
Catering from local vendors
RSA - Rake Sharing
Dedicated Rake.No RSA
Rake/Coach Composition
LOCO<SLR,GS,GS(MST),GS,S-1, S-2, S-3, S-4, S-5, S-6, S-7, S-8,GS,SLR,HCPV=14+1
Loco
TKD WDP-4/4B between FZR-NDLS, GZB WAP5 between NDLS-BCT
News    PNR    Forum    Time-Table    Availability    Fare Chart    Map    Arr/Dep History    Trips    Gallery    ΣChains    X/O    Timeline    
Travel Time: 7h 48m    22 halts    Distance: 316 km    Avg Speed: 40 km/hr
Type: Mail/Express
Zone: WR/Western
Departs @ 11:58 (Avg 26m late)
Platform# 2
SMTWTFS
Bharuch Junction/BH 
Arrives @ 19:46 (Avg 8m late)
Platform# 5
SMTWTFS
Mumbai Dadar Western/DDR 

22 halts. 65 intermediate Stations between Bharuch Junction and Mumbai Dadar Western

Show ALL intermediate Stations  Show Old Time-Table

#CodeStation NameX/OArrivesAvgDepartsAvgHaltPFDay#KmSpeedElevZoneAddress
1FZRFirozpur Cantt. Junction (5)  -05:10+1111-1450.781200mNRFirozpur Cantt 152001, Punjab
2FDKFaridkot (3)  05:34+2105:36+212m11-1418.555202mNRFaridkot, Punjab
3KKPKot Kapura Junction (3)  05:50+2205:52+222m11-1405.7650mNRKotkapura, Punjab
4GJUTGangsar Jaitu (3)  06:07+2106:09+212m11-1389.461207mNRJaitu, Punjab
5GNAGoneana Bhai Jagta (3)X  06:23+2106:25+232m11-1375.325206mNRGoniana, Punjab
6BTIBathinda Junction (6)  06:55+807:05+1010m21-1363.082208mNRBathinda, Punjab
7MAURMaur  07:31+2407:33+242m--1-1327.4101220mNRMaur Mandi, Punjab
8KTKLKotli Kalan  07:39-07:41-2m--1-1317.340219mNRState Highway 12A, Punjab
9MSZMansa  07:54+2307:56+232m--1-1308.774222mNRMansa, Punjab
10BLZBudhlada  08:09+2508:11+252m--1-1292.671223mNRBudhlada, Punjab
11BRZBareta  08:24+2508:26+252m--1-1277.250223mNRBareta, Punjab
12JHLJakhal Junction  08:43+2308:45+242m--1-1263.067225mNRJakhal, Haryana
13TUNTohana (2)  08:56+2608:58+262m--1-1250.876232mNRTohana, Haryana
14NRWNarwana Junction (4)  09:18+2809:20+282m--1-1225.370235mNRWay to Narwana, Haryana
15UCAUchanaX  09:33+2809:35+282m--1-1210.145225mNRDistrict Jind, Haryana
16JINDJind Junction (3)  10:00+1810:05+175m--1-1191.470222mNR126102., Haryana
17JNAJulana  10:27+2310:29+232m--1-1165.752226mNRJulana, Haryana
18ROKRohtak Junction (3)  11:05+1411:08+153m--1-1134.363220mNRRohtak, Haryana
19ISMIsmaila Haryana  11:26-11:28-2m--1-1115.553221mNRNational Highway 10, Haryana
20SPZSampla  11:32+1311:34+142m--1-1112.072222mNRSampla, Haryana
21BGZBahadurgarh  11:49+1811:51+182m--1-1094.162220mNRBahadurgarh, Haryana
22NNONangloi  12:03+2112:05+222m--1-1081.648219mNRJJ Colony No 1, Delhi NCT
23MGLPMangolpuriX  12:09-12:11-2m--1-1078.326217mNROutter Ring Rd, Delhi NCT
24SSBShakur Basti  12:21+1712:23+192m--1-1074.132216mNRPitampura, Delhi NCT
25DKZDelhi KishanGanj (2)  12:36+2412:38+252m--1-1067.19220mNRSarai Rohilla, Delhi NCT
26NDLSNew Delhi (16)X13:05+2213:35+2330m71-1063.332215mNRNew Delhi, Delhi NCT
27NZMDelhi Hazrat Nizamuddin (7)XO  13:49+2913:51+312m11-1055.937209mNRNew Delhi 110013, Delhi NCT
28OKAOkhla (4)X  13:57+3313:59+322m--1-1052.252221mNRIshwar Nagar Mathura Road, Delhi NCT
29TKDTuglakabad (4)XO  14:06+3314:08+332m11-1046.244213mNRNear Tughlakabad Metro Station, Delhi NCT
30FDBFaridabad (4)  14:23+3014:25+332m31-1035.127206mNRold Faridabad, Haryana
31BVHBallabgarh (5)O  14:43+2614:45+262m--1-1027.039203mNRFaridabad, Haryana
32PWLPalwal (8)  15:18+1515:20+162m--1-1005.885200mNRPalwal, Haryana
33KSVKosi Kalan (3)X  15:50+4015:52+432m21-963.456189mNCRKosi Kalan, Uttar Pradesh
34CHJChata (4)X  16:03+4316:05+462m--1-953.134 NCRChhata, Uttar Pradesh
35MTJMathura Junction (10)  17:00+2217:05+295m31-921.980179mNCRMathura, Uttar Pradesh
36BTEBharatpur Junction (5)O  17:30+3817:35+385m31-888.472174mWCRBharatpur, Rajasthan
37BXNBayana Junction (3)X  18:10+3518:15+355m--1-846.491198mWCRBayana, Rajasthan
38FSPFateh SinghpuraX  18:28+3818:30+412m--1-826.744223mWCRState Highway 1, Rajasthan
39HANHindaun City (2)  18:48+3518:50+442m--1-813.561230mWCRKarauli, Rajasthan
40SMBJShri Mahabirji (3)X  19:00+4419:02+442m--1-803.443240mWCRKarauli, Rajasthan
41GGCGangapur City (3)  19:50+3219:55+385m21-769.364270mWCRGangapur, Rajasthan
42NNWNarayanpur Tatwara (2)OT20:11+3920:12+391m--1-752.336256mWCRSawai Madhopur, Rajasthan
43MLZMalarna  20:40+2520:42+262m21-735.579236mWCRSawai Madhopur, Rajasthan
44SWMSawai Madhopur Junction (4)X  21:05+3421:10+405m21-705.487266mWCRSawai Madhopur, Rajasthan
45IDGIndargarh Sumerganj Mandi (2)  21:35+4521:37+472m--1-669.166247mWCRIndargarh, Rajasthan
46LKELakheri (3)X  21:47+4721:49+502m--1-658.145228mWCRBundi, Rajasthan
47KOTAKota Junction (5)  23:10+5323:20+5610m21-597.568256mWCRKota, Rajasthan
48RMARamganj Mandi Junction (3)X  00:23+5400:25+582m--2-526.357358mWCRRamganj Mandi, Rajasthan
49JHWJhalawar Road (3)XO  00:38+5600:40+572m--2-513.930361mWCRJhalawar City, Rajasthan
50BWMBhawani Mandi (3)X  01:13+4201:15+482m--2-497.474384mWCRBhawani Mandi, Madhya Pradesh
51SGZShamgarh (3)X  01:42+5001:47+525m--2-463.950463mWCRMandsaur, Madhya Pradesh
52SVASuwasra (2)O  02:03+4902:05+522m--2-450.540450mWCRSuwasra, Madhya Pradesh
53CMUChau Mahla (3)  02:28+4202:30+432m12-435.120426mWCRJhalawar, Rajasthan
54VMAVikramgarh Alot (2)X  03:36+1303:38+152m12-413.341443mWCRKota Division, Madhya Pradesh
55MEPMahidpur Road  04:13+404:15+62m--2-389.441493mWCRGogapur, Madhya Pradesh
56NADNagda Junction (4)X  04:40+804:45+135m--2-372.475468mWRNagda, Madhya Pradesh
57KUHKhachrod (2)X  04:56+1704:58+172m--2-358.635497mWRUjjain, Madhya Pradesh
58RTMRatlam Junction (7)X  05:45+806:00+1115m42-330.977495mWRRatlam, Madhya Pradesh
59BMIBamnia (2)X  06:35+1806:37+172m--2-286.275392mWRBamnia, Madhya Pradesh
60THDRThandla Road (2)  06:59+2007:01+202m--2-258.668317mWRJhabua, Madhya Pradesh
61MGNMeghnagar (3)  07:08+2107:10+212m--2-250.680317mWRJhabua, Madhya Pradesh
62DHDDahod (3)X  07:35+2507:40+275m--2-217.573313mWRDahod, Gujarat
63LMKLimkheda  08:07+2908:09+282m--2-184.668205mWRLimkheda, Gujarat
64PPDPiplod Junction  08:16+2808:18+272m--2-176.689209mWRPiplod, Gujarat
65SATSant Road (2)X  08:26+3008:28+292m22-164.820169mWROrwara, Gujarat
66GDAGodhra Junction (3)X  09:29+509:34+75m12-144.474122mWRGodhra, Gujarat
67DRLDerol  09:53+1209:55+122m--2-120.87981mWRKalol, Gujarat
68SMLASamlaya Junction (3)  10:13+1310:15+142m--2-97.15367mWRVadodara, Gujarat
69BRCVadodara Junction (7)X10:45+1710:55+1710m12-70.58936mWRVadodara 390005, Gujarat
70MYGMiyagam Karjan (2)  11:15+2511:17+252m22-40.78329mWRKarjan, Gujarat
71PLJPalej (4)  11:28+2711:30+272m--2-25.48029mWRPalej, Gujarat
72NIUNabipur (3)XT11:40+3211:42+322m--2-12.15224mWRNabipur, Gujarat
73BH»Bharuch Junction (5)»  11:56+2511:58+262m220.06219mWRBharuch, Gujarat
74AKVAnkleshwar Junction (4)O  12:07+2612:09+262m229.34819mWRAnkleshwar, Gujarat
75PAOPanoli (3)T12:22+2012:24+192m--219.66229mWRPanoli, Gujarat
76KSBKosamba Junction (3)XO  12:32+2112:34+202m2227.95830mWRKosamba, Gujarat
77KIMKim (2)T12:42+2512:44+252m2235.73118mWRNH 8, Gujarat
78STSurat (4)X  13:30+1313:35+145m2259.37119mWRSurat 395001, Gujarat
79MRLMaroli (3)X  13:53+2513:55+262m2280.44615mWRMaroli, Gujarat
80NVSNavsari (3)  14:06+2414:08+252m2288.95514mWRNavsari, Gujarat
81AMLAmalsad (3)  14:25+2314:27+242m22104.53712mWRAmalsad, Gujarat
82BIMBilimora Junction (4)  14:36+2114:38+242m22110.13611mWRBilimora, Gujarat
83BLValsad (3)X  15:08+1815:10+232m32128.04615mWRValsad, Gujarat
84PADPardi (3)XT15:24+2015:26+192m--2138.75119mWRValsad, Gujarat
85UVDUdvada (3)T15:33+1915:35+202m--2144.65218mWRUdvada, Gujarat
86VAPIVapi (3)XO  15:46+2015:48+252m22154.23427mWRVapi, Gujarat
87BLDBhilad (3)XO  16:08+2116:10+212m--2165.56933mWRBhilad, Gujarat
88SJNSanjan (3)XO  16:20+2016:22+202m--2177.15422mWRSanjan, Gujarat
89UBRUmbargam Road (3)XO  16:28+2016:30+202m--2182.44730mWRUmbergaon, Gujarat
90DRDDahanu Road (5)X  16:56+1116:58+122m--2202.77412mWRDahanu, Maharashtra
91VGNVangaon (3)O  17:08+1317:10+132m--2215.07111mWRDist. Palghar, Maharashtra
92BORBoisar (3)XO  17:18+1017:20+102m32224.56117mWRBoisar Tel.no-02525-266626, Maharashtra
93PLGPalghar (3)XO  17:31+1117:33+112m22235.75719mWRPalghar, Maharashtra
94VRVirar (8)XO  18:06+818:08+92m42266.9526mWRDist. Palghar, Maharashtra
95BVIMumbai Borivali (8)  18:38+1018:40+112m52292.72219mWRMumbai - 400092, Maharashtra
96DDR•Mumbai Dadar Western (6)•  19:46+819:48+92m52316.4166mWRMumbai, Maharashtra
97BCTMumbai Central (9)  20:10+5-52322.4-3mWRMumbai 400008, Maharashtra
Scroll to Top
Scroll to Bottom